SJV840 WIII-WIJJ
Flight info
| Callsign | SJV840 |
|---|---|
| Flight time | 0h 58m |
| Altitude | 34000 |
| Route | DOLTA A585 PLB |
| Aircraft | A320/M-SDE3FGHIRWY/LB1 |
Departure
| Time | 2026-04-30 07:58 |
|---|---|
| Airport | Soekarno-Hatta International Airport (WIII) |
Arrival
| Time | 2026-04-30 08:56 |
|---|---|
| Airport | Sultan Thaha Airport (WIJJ) |
| Time | Latitude | Longitude | Altitude | Speed | Heading |
|---|---|---|---|---|---|
| 2026-04-30 07:40 | -6.11990 | 106.65272 | 47 ft | 0 kts | 219° |
| 2026-04-30 07:45 | -6.11985 | 106.65276 | 47 ft | 2 kts | 219° |
| 2026-04-30 07:46 | -6.11974 | 106.65286 | 47 ft | 2 kts | 219° |
| 2026-04-30 07:46 | -6.11962 | 106.65295 | 47 ft | 2 kts | 219° |
| 2026-04-30 07:46 | -6.11950 | 106.65305 | 47 ft | 2 kts | 219° |
| 2026-04-30 07:46 | -6.11938 | 106.65314 | 47 ft | 2 kts | 224° |
| 2026-04-30 07:47 | -6.11933 | 106.65328 | 47 ft | 2 kts | 274° |
| 2026-04-30 07:47 | -6.11936 | 106.65338 | 47 ft | 0 kts | 303° |
| 2026-04-30 07:47 | -6.11940 | 106.65344 | 47 ft | 1 kts | 307° |
| 2026-04-30 07:47 | -6.11941 | 106.65345 | 47 ft | 0 kts | 307° |
| 2026-04-30 07:50 | -6.11939 | 106.65343 | 47 ft | 1 kts | 307° |
| 2026-04-30 07:50 | -6.11932 | 106.65334 | 47 ft | 2 kts | 307° |
| 2026-04-30 07:50 | -6.11920 | 106.65318 | 47 ft | 3 kts | 307° |
| 2026-04-30 07:50 | -6.11902 | 106.65294 | 47 ft | 4 kts | 307° |
| 2026-04-30 07:51 | -6.11880 | 106.65264 | 47 ft | 5 kts | 307° |
| 2026-04-30 07:51 | -6.11843 | 106.65239 | 47 ft | 7 kts | 339° |
| 2026-04-30 07:51 | -6.11794 | 106.65218 | 47 ft | 8 kts | 325° |
| 2026-04-30 07:51 | -6.11778 | 106.65166 | 47 ft | 8 kts | 242° |
| 2026-04-30 07:52 | -6.11808 | 106.65108 | 47 ft | 9 kts | 247° |
| 2026-04-30 07:52 | -6.11835 | 106.65041 | 47 ft | 10 kts | 248° |
| 2026-04-30 07:52 | -6.11864 | 106.64970 | 47 ft | 11 kts | 248° |
| 2026-04-30 07:52 | -6.11894 | 106.64894 | 47 ft | 11 kts | 249° |
| 2026-04-30 07:53 | -6.11924 | 106.64814 | 47 ft | 12 kts | 249° |
| 2026-04-30 07:53 | -6.11956 | 106.64732 | 47 ft | 12 kts | 249° |
| 2026-04-30 07:53 | -6.11988 | 106.64648 | 47 ft | 13 kts | 249° |
| 2026-04-30 07:53 | -6.12012 | 106.64590 | 47 ft | 8 kts | 248° |
| 2026-04-30 07:54 | -6.12036 | 106.64532 | 47 ft | 9 kts | 248° |
| 2026-04-30 07:54 | -6.12062 | 106.64467 | 47 ft | 10 kts | 248° |
| 2026-04-30 07:54 | -6.12090 | 106.64397 | 47 ft | 11 kts | 249° |
| 2026-04-30 07:54 | -6.12119 | 106.64322 | 47 ft | 11 kts | 249° |
| 2026-04-30 07:55 | -6.12149 | 106.64245 | 47 ft | 12 kts | 249° |
| 2026-04-30 07:55 | -6.12181 | 106.64163 | 47 ft | 12 kts | 248° |
| 2026-04-30 07:55 | -6.12215 | 106.64079 | 47 ft | 13 kts | 248° |
| 2026-04-30 07:55 | -6.12249 | 106.63993 | 47 ft | 13 kts | 249° |
| 2026-04-30 07:56 | -6.12267 | 106.63945 | 47 ft | 6 kts | 258° |
| 2026-04-30 07:56 | -6.12246 | 106.63902 | 47 ft | 7 kts | 322° |
| 2026-04-30 07:56 | -6.12193 | 106.63884 | 47 ft | 8 kts | 353° |
| 2026-04-30 07:56 | -6.12133 | 106.63899 | 47 ft | 9 kts | 17° |
| 2026-04-30 07:57 | -6.12092 | 106.63908 | 47 ft | 1 kts | 47° |
| 2026-04-30 07:57 | -6.12084 | 106.63929 | 47 ft | 4 kts | 68° |
| 2026-04-30 07:57 | -6.12026 | 106.64066 | 47 ft | 50 kts | 67° |
| 2026-04-30 07:57 | -6.11820 | 106.64592 | 47 ft | 110 kts | 66° |
| 2026-04-30 07:58 | -6.11460 | 106.65491 | 48 ft | 162 kts | 68° |
| 2026-04-30 07:58 | -6.11002 | 106.66630 | 326 ft | 179 kts | 66° |
| 2026-04-30 07:58 | -6.10545 | 106.67782 | 891 ft | 178 kts | 67° |
| 2026-04-30 07:58 | -6.09995 | 106.68862 | 1522 ft | 174 kts | 44° |
| 2026-04-30 07:59 | -6.09004 | 106.69521 | 2015 ft | 173 kts | 29° |
| 2026-04-30 07:59 | -6.07916 | 106.70113 | 2300 ft | 185 kts | 27° |
| 2026-04-30 07:59 | -6.06622 | 106.70429 | 2545 ft | 202 kts | 353° |
| 2026-04-30 08:00 | -6.04021 | 106.68816 | 3061 ft | 241 kts | 323° |
| 2026-04-30 08:00 | -6.02628 | 106.67715 | 3390 ft | 259 kts | 324° |
| 2026-04-30 08:00 | -6.01145 | 106.66593 | 3847 ft | 272 kts | 325° |
| 2026-04-30 08:00 | -5.99577 | 106.65452 | 4548 ft | 275 kts | 326° |
| 2026-04-30 08:01 | -5.98008 | 106.64339 | 5293 ft | 277 kts | 326° |
| 2026-04-30 08:01 | -5.96417 | 106.63228 | 6043 ft | 279 kts | 327° |
| 2026-04-30 08:01 | -5.94814 | 106.62117 | 6768 ft | 282 kts | 327° |
| 2026-04-30 08:01 | -5.93174 | 106.60986 | 7483 ft | 286 kts | 327° |
| 2026-04-30 08:02 | -5.89875 | 106.58722 | 8864 ft | 291 kts | 327° |
| 2026-04-30 08:02 | -5.88173 | 106.57556 | 9524 ft | 295 kts | 327° |
| 2026-04-30 08:03 | -5.84720 | 106.55192 | 10550 ft | 310 kts | 327° |
| 2026-04-30 08:03 | -5.80936 | 106.52609 | 11268 ft | 335 kts | 327° |
| 2026-04-30 08:03 | -5.79007 | 106.51290 | 11837 ft | 338 kts | 327° |
| 2026-04-30 08:04 | -5.77037 | 106.49943 | 12398 ft | 341 kts | 327° |
| 2026-04-30 08:04 | -5.75061 | 106.48592 | 12935 ft | 344 kts | 327° |
| 2026-04-30 08:04 | -5.73074 | 106.47233 | 13458 ft | 348 kts | 327° |
| 2026-04-30 08:04 | -5.71049 | 106.45849 | 13987 ft | 350 kts | 327° |
| 2026-04-30 08:05 | -5.69013 | 106.44457 | 14508 ft | 353 kts | 328° |
| 2026-04-30 08:05 | -5.66981 | 106.43070 | 15006 ft | 355 kts | 328° |
| 2026-04-30 08:05 | -5.64915 | 106.41657 | 15496 ft | 358 kts | 328° |
| 2026-04-30 08:05 | -5.62828 | 106.40231 | 15970 ft | 360 kts | 328° |
| 2026-04-30 08:06 | -5.60746 | 106.38809 | 16432 ft | 363 kts | 328° |
| 2026-04-30 08:06 | -5.58642 | 106.37373 | 16891 ft | 365 kts | 328° |
| 2026-04-30 08:06 | -5.56512 | 106.35918 | 17343 ft | 367 kts | 328° |
| 2026-04-30 08:06 | -5.54395 | 106.34474 | 17785 ft | 369 kts | 329° |
| 2026-04-30 08:07 | -5.52269 | 106.33025 | 18204 ft | 371 kts | 328° |
| 2026-04-30 08:07 | -5.50095 | 106.31543 | 18618 ft | 373 kts | 328° |
| 2026-04-30 08:07 | -5.47940 | 106.30073 | 19014 ft | 375 kts | 328° |
| 2026-04-30 08:07 | -5.45769 | 106.28592 | 19397 ft | 378 kts | 328° |
| 2026-04-30 08:08 | -5.43553 | 106.27081 | 19784 ft | 380 kts | 328° |
| 2026-04-30 08:08 | -5.41373 | 106.25593 | 20160 ft | 382 kts | 328° |
| 2026-04-30 08:08 | -5.39145 | 106.24072 | 20520 ft | 384 kts | 328° |
| 2026-04-30 08:08 | -5.36935 | 106.22564 | 20864 ft | 386 kts | 328° |
| 2026-04-30 08:09 | -5.34683 | 106.21028 | 21204 ft | 388 kts | 328° |
| 2026-04-30 08:09 | -5.32421 | 106.19485 | 21536 ft | 390 kts | 328° |
| 2026-04-30 08:09 | -5.30147 | 106.17933 | 21861 ft | 392 kts | 327° |
| 2026-04-30 08:09 | -5.27893 | 106.16396 | 22177 ft | 394 kts | 327° |
| 2026-04-30 08:10 | -5.25595 | 106.14827 | 22499 ft | 396 kts | 327° |
| 2026-04-30 08:10 | -5.23306 | 106.13266 | 22804 ft | 398 kts | 327° |
| 2026-04-30 08:10 | -5.20991 | 106.11687 | 23102 ft | 400 kts | 327° |
| 2026-04-30 08:10 | -5.18639 | 106.10085 | 23407 ft | 402 kts | 327° |
| 2026-04-30 08:11 | -5.16328 | 106.08508 | 23706 ft | 404 kts | 327° |
| 2026-04-30 08:11 | -5.13970 | 106.06901 | 24006 ft | 405 kts | 327° |
| 2026-04-30 08:11 | -5.11623 | 106.05300 | 24291 ft | 407 kts | 327° |
| 2026-04-30 08:11 | -5.09230 | 106.03670 | 24577 ft | 409 kts | 327° |
| 2026-04-30 08:12 | -5.06867 | 106.02059 | 24853 ft | 411 kts | 327° |
| 2026-04-30 08:12 | -5.04456 | 106.00416 | 25127 ft | 413 kts | 327° |
| 2026-04-30 08:12 | -5.02063 | 105.98785 | 25388 ft | 415 kts | 328° |
| 2026-04-30 08:12 | -4.99639 | 105.97132 | 25646 ft | 417 kts | 328° |
| 2026-04-30 08:13 | -4.97206 | 105.95475 | 25908 ft | 419 kts | 328° |
| 2026-04-30 08:13 | -4.94787 | 105.93828 | 26177 ft | 421 kts | 328° |
| 2026-04-30 08:13 | -4.92335 | 105.92157 | 26457 ft | 422 kts | 328° |
| 2026-04-30 08:13 | -4.89886 | 105.90491 | 26728 ft | 424 kts | 328° |
| 2026-04-30 08:14 | -4.87404 | 105.88799 | 26999 ft | 425 kts | 328° |
| 2026-04-30 08:14 | -4.84949 | 105.87128 | 27262 ft | 427 kts | 328° |
| 2026-04-30 08:14 | -4.82458 | 105.85432 | 27516 ft | 429 kts | 328° |
| 2026-04-30 08:14 | -4.79983 | 105.83747 | 27765 ft | 430 kts | 328° |
| 2026-04-30 08:15 | -4.77462 | 105.82031 | 28007 ft | 432 kts | 328° |
| 2026-04-30 08:15 | -4.74978 | 105.80340 | 28229 ft | 434 kts | 328° |
| 2026-04-30 08:15 | -4.72429 | 105.78604 | 28457 ft | 437 kts | 328° |
| 2026-04-30 08:15 | -4.69884 | 105.76873 | 28693 ft | 438 kts | 328° |
| 2026-04-30 08:16 | -4.67363 | 105.75158 | 28922 ft | 440 kts | 328° |
| 2026-04-30 08:16 | -4.64799 | 105.73414 | 29186 ft | 441 kts | 328° |
| 2026-04-30 08:16 | -4.62234 | 105.71670 | 29455 ft | 442 kts | 328° |
| 2026-04-30 08:16 | -4.59670 | 105.69925 | 29702 ft | 443 kts | 328° |
| 2026-04-30 08:17 | -4.57113 | 105.68185 | 29937 ft | 445 kts | 328° |
| 2026-04-30 08:17 | -4.54545 | 105.66439 | 30173 ft | 446 kts | 328° |
| 2026-04-30 08:17 | -4.51940 | 105.64668 | 30400 ft | 448 kts | 327° |
| 2026-04-30 08:17 | -4.49339 | 105.62899 | 30624 ft | 449 kts | 327° |
| 2026-04-30 08:18 | -4.46742 | 105.61132 | 30852 ft | 451 kts | 327° |
| 2026-04-30 08:18 | -4.44110 | 105.59341 | 31074 ft | 452 kts | 327° |
| 2026-04-30 08:18 | -4.41469 | 105.57546 | 31289 ft | 454 kts | 327° |
| 2026-04-30 08:18 | -4.38840 | 105.55759 | 31501 ft | 455 kts | 327° |
| 2026-04-30 08:19 | -4.36204 | 105.53966 | 31724 ft | 456 kts | 327° |
| 2026-04-30 08:19 | -4.33552 | 105.52164 | 32024 ft | 455 kts | 327° |
| 2026-04-30 08:19 | -4.30910 | 105.50368 | 32323 ft | 455 kts | 327° |
| 2026-04-30 08:19 | -4.28275 | 105.48576 | 32582 ft | 455 kts | 327° |
| 2026-04-30 08:20 | -4.25607 | 105.46763 | 32837 ft | 456 kts | 327° |
| 2026-04-30 08:20 | -4.22968 | 105.44969 | 33097 ft | 456 kts | 327° |
| 2026-04-30 08:20 | -4.20328 | 105.43175 | 33361 ft | 457 kts | 327° |
| 2026-04-30 08:20 | -4.17655 | 105.41358 | 33608 ft | 458 kts | 327° |
| 2026-04-30 08:21 | -4.15006 | 105.39558 | 33816 ft | 459 kts | 327° |
| 2026-04-30 08:21 | -4.09654 | 105.35922 | 33831 ft | 460 kts | 327° |
| 2026-04-30 08:22 | -4.04300 | 105.32284 | 33833 ft | 461 kts | 327° |
| 2026-04-30 08:22 | -3.98961 | 105.28657 | 33833 ft | 460 kts | 327° |
| 2026-04-30 08:23 | -3.93629 | 105.25037 | 33833 ft | 460 kts | 327° |
| 2026-04-30 08:23 | -3.87691 | 105.21475 | 33832 ft | 459 kts | 332° |
| 2026-04-30 08:24 | -3.82057 | 105.18310 | 33831 ft | 459 kts | 332° |
| 2026-04-30 08:24 | -3.76444 | 105.15157 | 33829 ft | 459 kts | 332° |
| 2026-04-30 08:25 | -3.70797 | 105.11981 | 33827 ft | 460 kts | 332° |
| 2026-04-30 08:25 | -3.65206 | 105.08836 | 33822 ft | 460 kts | 332° |
| 2026-04-30 08:26 | -3.59596 | 105.05679 | 33816 ft | 460 kts | 332° |
| 2026-04-30 08:26 | -3.53929 | 105.02488 | 33815 ft | 459 kts | 332° |
| 2026-04-30 08:27 | -3.48290 | 104.99314 | 33815 ft | 459 kts | 332° |
| 2026-04-30 08:27 | -3.42645 | 104.96139 | 33812 ft | 459 kts | 332° |
| 2026-04-30 08:28 | -3.36988 | 104.92957 | 33811 ft | 459 kts | 332° |
| 2026-04-30 08:28 | -3.31372 | 104.89801 | 33811 ft | 460 kts | 332° |
| 2026-04-30 08:29 | -3.25732 | 104.86629 | 33811 ft | 460 kts | 332° |
| 2026-04-30 08:29 | -3.20080 | 104.83447 | 33811 ft | 461 kts | 332° |
| 2026-04-30 08:30 | -3.14442 | 104.80277 | 33812 ft | 461 kts | 332° |
| 2026-04-30 08:30 | -3.08745 | 104.77074 | 33813 ft | 461 kts | 332° |
| 2026-04-30 08:31 | -3.03151 | 104.73928 | 33815 ft | 461 kts | 332° |
| 2026-04-30 08:31 | -2.97506 | 104.70755 | 33818 ft | 461 kts | 332° |
| 2026-04-30 08:32 | -2.92123 | 104.67211 | 33818 ft | 463 kts | 322° |
| 2026-04-30 08:32 | -2.87536 | 104.62611 | 33820 ft | 466 kts | 309° |
| 2026-04-30 08:33 | -2.83981 | 104.57106 | 33803 ft | 469 kts | 297° |
| 2026-04-30 08:33 | -2.82564 | 104.54144 | 33482 ft | 469 kts | 295° |
| 2026-04-30 08:33 | -2.81216 | 104.51187 | 33006 ft | 466 kts | 295° |
| 2026-04-30 08:33 | -2.79871 | 104.48220 | 32437 ft | 462 kts | 295° |
| 2026-04-30 08:34 | -2.78531 | 104.45287 | 31847 ft | 460 kts | 296° |
| 2026-04-30 08:34 | -2.77201 | 104.42402 | 31180 ft | 461 kts | 296° |
| 2026-04-30 08:34 | -2.75845 | 104.39476 | 30696 ft | 456 kts | 296° |
| 2026-04-30 08:34 | -2.74519 | 104.36620 | 30229 ft | 452 kts | 296° |
| 2026-04-30 08:35 | -2.73168 | 104.33725 | 29739 ft | 447 kts | 297° |
| 2026-04-30 08:35 | -2.71599 | 104.31056 | 29248 ft | 442 kts | 307° |
| 2026-04-30 08:35 | -2.69642 | 104.28675 | 28769 ft | 436 kts | 316° |
| 2026-04-30 08:35 | -2.67363 | 104.26633 | 28308 ft | 430 kts | 323° |
| 2026-04-30 08:36 | -2.64977 | 104.24823 | 27848 ft | 426 kts | 325° |
| 2026-04-30 08:36 | -2.62592 | 104.23064 | 27374 ft | 423 kts | 325° |
| 2026-04-30 08:36 | -2.60217 | 104.21310 | 26886 ft | 420 kts | 325° |
| 2026-04-30 08:36 | -2.57851 | 104.19559 | 26396 ft | 418 kts | 325° |
| 2026-04-30 08:37 | -2.55490 | 104.17802 | 25906 ft | 416 kts | 325° |
| 2026-04-30 08:37 | -2.53180 | 104.16080 | 25437 ft | 413 kts | 325° |
| 2026-04-30 08:37 | -2.50866 | 104.14351 | 24961 ft | 410 kts | 325° |
| 2026-04-30 08:37 | -2.48564 | 104.12629 | 24483 ft | 408 kts | 325° |
| 2026-04-30 08:38 | -2.46281 | 104.10921 | 24009 ft | 406 kts | 325° |
| 2026-04-30 08:38 | -2.44014 | 104.09224 | 23539 ft | 403 kts | 325° |
| 2026-04-30 08:38 | -2.41742 | 104.07523 | 23071 ft | 401 kts | 325° |
| 2026-04-30 08:38 | -2.39516 | 104.05858 | 22603 ft | 399 kts | 325° |
| 2026-04-30 08:39 | -2.37246 | 104.04160 | 22130 ft | 398 kts | 325° |
| 2026-04-30 08:39 | -2.35042 | 104.02512 | 21680 ft | 396 kts | 325° |
| 2026-04-30 08:39 | -2.32823 | 104.00851 | 21227 ft | 395 kts | 325° |
| 2026-04-30 08:39 | -2.30621 | 103.99204 | 20783 ft | 393 kts | 325° |
| 2026-04-30 08:40 | -2.28417 | 103.97553 | 20332 ft | 392 kts | 325° |
| 2026-04-30 08:40 | -2.26205 | 103.95899 | 19876 ft | 390 kts | 325° |
| 2026-04-30 08:40 | -2.24032 | 103.94273 | 19427 ft | 389 kts | 325° |
| 2026-04-30 08:40 | -2.21853 | 103.92643 | 18969 ft | 388 kts | 325° |
| 2026-04-30 08:41 | -2.19664 | 103.91004 | 18507 ft | 387 kts | 325° |
| 2026-04-30 08:41 | -2.17489 | 103.89377 | 18042 ft | 386 kts | 325° |
| 2026-04-30 08:41 | -2.15317 | 103.87752 | 17569 ft | 385 kts | 325° |
| 2026-04-30 08:41 | -2.13148 | 103.86130 | 17097 ft | 384 kts | 325° |
| 2026-04-30 08:42 | -2.10983 | 103.84510 | 16633 ft | 383 kts | 325° |
| 2026-04-30 08:42 | -2.08868 | 103.82928 | 16200 ft | 381 kts | 325° |
| 2026-04-30 08:42 | -2.06728 | 103.81328 | 15765 ft | 378 kts | 325° |
| 2026-04-30 08:42 | -2.04626 | 103.79755 | 15331 ft | 376 kts | 325° |
| 2026-04-30 08:43 | -2.02537 | 103.78192 | 14897 ft | 373 kts | 325° |
| 2026-04-30 08:43 | -2.00431 | 103.76617 | 14450 ft | 371 kts | 325° |
| 2026-04-30 08:43 | -1.98372 | 103.75075 | 14008 ft | 368 kts | 325° |
| 2026-04-30 08:43 | -1.96357 | 103.73569 | 13576 ft | 366 kts | 325° |
| 2026-04-30 08:44 | -1.94299 | 103.72031 | 13131 ft | 364 kts | 325° |
| 2026-04-30 08:44 | -1.92272 | 103.70515 | 12695 ft | 361 kts | 325° |
| 2026-04-30 08:44 | -1.90241 | 103.68996 | 12259 ft | 358 kts | 325° |
| 2026-04-30 08:44 | -1.88249 | 103.67506 | 11830 ft | 355 kts | 325° |
| 2026-04-30 08:45 | -1.86261 | 103.66018 | 11400 ft | 352 kts | 325° |
| 2026-04-30 08:45 | -1.84652 | 103.64813 | 11048 ft | 350 kts | 324° |
| 2026-04-30 08:45 | -1.82708 | 103.63361 | 10621 ft | 348 kts | 324° |
| 2026-04-30 08:45 | -1.80762 | 103.61906 | 10219 ft | 344 kts | 324° |
| 2026-04-30 08:46 | -1.78884 | 103.60500 | 10090 ft | 331 kts | 324° |
| 2026-04-30 08:46 | -1.77044 | 103.59121 | 9979 ft | 319 kts | 324° |
| 2026-04-30 08:46 | -1.75375 | 103.57684 | 9733 ft | 314 kts | 315° |
| 2026-04-30 08:46 | -1.73991 | 103.55982 | 9442 ft | 311 kts | 307° |
| 2026-04-30 08:47 | -1.72818 | 103.54282 | 9177 ft | 307 kts | 306° |
| 2026-04-30 08:47 | -1.71621 | 103.52505 | 8903 ft | 303 kts | 306° |
| 2026-04-30 08:47 | -1.70447 | 103.50762 | 8498 ft | 294 kts | 306° |
| 2026-04-30 08:47 | -1.69388 | 103.49200 | 8016 ft | 288 kts | 306° |
| 2026-04-30 08:48 | -1.68264 | 103.47552 | 7555 ft | 280 kts | 306° |
| 2026-04-30 08:48 | -1.67181 | 103.45968 | 7172 ft | 270 kts | 306° |
| 2026-04-30 08:48 | -1.66125 | 103.44421 | 6827 ft | 264 kts | 306° |
| 2026-04-30 08:48 | -1.65098 | 103.42925 | 6501 ft | 262 kts | 306° |
| 2026-04-30 08:49 | -1.64049 | 103.41393 | 6172 ft | 264 kts | 306° |
| 2026-04-30 08:49 | -1.62992 | 103.39852 | 5846 ft | 266 kts | 306° |
| 2026-04-30 08:49 | -1.61746 | 103.38499 | 5474 ft | 266 kts | 329° |
| 2026-04-30 08:49 | -1.59995 | 103.37916 | 5130 ft | 265 kts | 358° |
| 2026-04-30 08:50 | -1.58232 | 103.38204 | 4787 ft | 265 kts | 24° |
| 2026-04-30 08:50 | -1.56688 | 103.39230 | 4456 ft | 266 kts | 39° |
| 2026-04-30 08:50 | -1.55240 | 103.40389 | 4124 ft | 267 kts | 38° |
| 2026-04-30 08:50 | -1.53775 | 103.41549 | 3787 ft | 268 kts | 38° |
| 2026-04-30 08:51 | -1.52287 | 103.42715 | 3456 ft | 267 kts | 38° |
| 2026-04-30 08:51 | -1.50934 | 103.43931 | 3369 ft | 256 kts | 54° |
| 2026-04-30 08:51 | -1.50386 | 103.45561 | 3306 ft | 246 kts | 91° |
| 2026-04-30 08:51 | -1.50863 | 103.47153 | 3272 ft | 236 kts | 115° |
| 2026-04-30 08:52 | -1.51569 | 103.48613 | 3229 ft | 226 kts | 112° |
| 2026-04-30 08:52 | -1.52192 | 103.50046 | 3150 ft | 218 kts | 111° |
| 2026-04-30 08:52 | -1.52922 | 103.51350 | 3014 ft | 214 kts | 125° |
| 2026-04-30 08:52 | -1.53868 | 103.52511 | 2883 ft | 209 kts | 128° |
| 2026-04-30 08:53 | -1.54794 | 103.53596 | 2768 ft | 200 kts | 128° |
| 2026-04-30 08:53 | -1.55702 | 103.54668 | 2413 ft | 204 kts | 128° |
| 2026-04-30 08:53 | -1.56619 | 103.55760 | 2099 ft | 205 kts | 127° |
| 2026-04-30 08:53 | -1.57532 | 103.56857 | 1808 ft | 200 kts | 127° |
| 2026-04-30 08:54 | -1.58400 | 103.57900 | 1535 ft | 189 kts | 126° |
| 2026-04-30 08:54 | -1.59219 | 103.58888 | 1313 ft | 178 kts | 126° |
| 2026-04-30 08:54 | -1.59994 | 103.59828 | 1073 ft | 170 kts | 127° |
| 2026-04-30 08:54 | -1.60745 | 103.60735 | 847 ft | 161 kts | 127° |
| 2026-04-30 08:55 | -1.61441 | 103.61577 | 640 ft | 154 kts | 126° |
| 2026-04-30 08:55 | -1.62112 | 103.62389 | 421 ft | 148 kts | 126° |
| 2026-04-30 08:55 | -1.62767 | 103.63173 | 271 ft | 146 kts | 128° |
| 2026-04-30 08:55 | -1.63421 | 103.63960 | 103 ft | 145 kts | 127° |
| 2026-04-30 08:56 | -1.64011 | 103.64684 | 84 ft | 111 kts | 129° |
| 2026-04-30 08:56 | -1.64356 | 103.65108 | 70 ft | 66 kts | 132° |
| 2026-04-30 08:56 | -1.64579 | 103.65374 | 69 ft | 29 kts | 126° |
| 2026-04-30 08:56 | -1.64661 | 103.65492 | 69 ft | 13 kts | 124° |
| 2026-04-30 08:57 | -1.64703 | 103.65527 | 69 ft | 5 kts | 224° |
| 2026-04-30 08:57 | -1.64681 | 103.65486 | 69 ft | 8 kts | 311° |
| 2026-04-30 08:57 | -1.64641 | 103.65440 | 69 ft | 9 kts | 311° |
| 2026-04-30 08:57 | -1.64596 | 103.65389 | 69 ft | 10 kts | 310° |
| 2026-04-30 08:58 | -1.64547 | 103.65331 | 69 ft | 11 kts | 309° |
| 2026-04-30 08:58 | -1.64508 | 103.65282 | 69 ft | 12 kts | 309° |
| 2026-04-30 08:58 | -1.64453 | 103.65216 | 69 ft | 12 kts | 309° |
| 2026-04-30 08:58 | -1.64394 | 103.65144 | 69 ft | 13 kts | 309° |
| 2026-04-30 08:59 | -1.64337 | 103.65075 | 71 ft | 12 kts | 309° |
| 2026-04-30 08:59 | -1.64283 | 103.65010 | 73 ft | 11 kts | 309° |
| 2026-04-30 08:59 | -1.64235 | 103.64951 | 75 ft | 10 kts | 309° |
| 2026-04-30 08:59 | -1.64192 | 103.64899 | 77 ft | 9 kts | 309° |
| 2026-04-30 09:00 | -1.64153 | 103.64852 | 78 ft | 9 kts | 310° |
| 2026-04-30 09:00 | -1.64089 | 103.64776 | 81 ft | 19 kts | 310° |
| 2026-04-30 09:00 | -1.64004 | 103.64671 | 84 ft | 18 kts | 310° |
| 2026-04-30 09:00 | -1.63926 | 103.64578 | 87 ft | 16 kts | 309° |
| 2026-04-30 09:01 | -1.63858 | 103.64494 | 90 ft | 14 kts | 309° |
| 2026-04-30 09:01 | -1.63769 | 103.64390 | 90 ft | 15 kts | 308° |
| 2026-04-30 09:01 | -1.63703 | 103.64308 | 90 ft | 12 kts | 310° |
| 2026-04-30 09:01 | -1.63652 | 103.64288 | 91 ft | 11 kts | 20° |
| 2026-04-30 09:02 | -1.63528 | 103.64378 | 94 ft | 9 kts | 12° |
| 2026-04-30 09:02 | -1.63465 | 103.64359 | 95 ft | 10 kts | 323° |
| 2026-04-30 09:02 | -1.63414 | 103.64300 | 94 ft | 11 kts | 309° |
| 2026-04-30 09:03 | -1.63377 | 103.64253 | 94 ft | 5 kts | 308° |
| 2026-04-30 09:03 | -1.63349 | 103.64259 | 94 ft | 5 kts | 42° |
| 2026-04-30 09:03 | -1.63318 | 103.64284 | 94 ft | 2 kts | 38° |
| 2026-04-30 09:03 | -1.63309 | 103.64291 | 94 ft | 0 kts | 38° |